sensor_id;sensor_type;location;lat;lon;timestamp;temperature;humidity
23671;DHT22;12012;51.998;7.614;2023-04-06T00:01:27;3.80;1.00
23671;DHT22;12012;51.998;7.614;2023-04-06T00:03:53;3.70;1.00
23671;DHT22;12012;51.998;7.614;2023-04-06T00:06:18;3.70;1.00
23671;DHT22;12012;51.998;7.614;2023-04-06T00:08:44;3.60;1.00
23671;DHT22;12012;51.998;7.614;2023-04-06T00:11:10;3.60;1.00
23671;DHT22;12012;51.998;7.614;2023-04-06T00:13:35;3.60;1.00
23671;DHT22;12012;51.998;7.614;2023-04-06T00:16:01;3.60;1.00
23671;DHT22;12012;51.998;7.614;2023-04-06T00:18:27;3.50;1.00
23671;DHT22;12012;51.998;7.614;2023-04-06T00:20:53;3.50;1.00
23671;DHT22;12012;51.998;7.614;2023-04-06T00:23:18;3.40;1.00
23671;DHT22;12012;51.998;7.614;2023-04-06T00:25:44;3.30;1.00
23671;DHT22;12012;51.998;7.614;2023-04-06T00:28:09;3.40;1.00
23671;DHT22;12012;51.998;7.614;2023-04-06T00:30:35;3.30;1.00
23671;DHT22;12012;51.998;7.614;2023-04-06T00:33:01;3.30;1.00
23671;DHT22;12012;51.998;7.614;2023-04-06T00:35:26;3.30;1.00
23671;DHT22;12012;51.998;7.614;2023-04-06T00:37:52;3.20;1.00
23671;DHT22;12012;51.998;7.614;2023-04-06T00:40:18;3.20;1.00
23671;DHT22;12012;51.998;7.614;2023-04-06T00:42:43;3.20;1.00
23671;DHT22;12012;51.998;7.614;2023-04-06T00:45:10;3.10;1.00
23671;DHT22;12012;51.998;7.614;2023-04-06T00:47:36;3.10;1.00
23671;DHT22;12012;51.998;7.614;2023-04-06T00:50:01;3.10;1.00
23671;DHT22;12012;51.998;7.614;2023-04-06T00:52:28;3.10;1.00
23671;DHT22;12012;51.998;7.614;2023-04-06T00:54:53;3.00;1.00
23671;DHT22;12012;51.998;7.614;2023-04-06T00:57:19;3.00;1.00
23671;DHT22;12012;51.998;7.614;2023-04-06T00:59:45;2.90;1.00
23671;DHT22;12012;51.998;7.614;2023-04-06T01:02:11;2.90;1.00
23671;DHT22;12012;51.998;7.614;2023-04-06T01:04:37;2.80;1.00
23671;DHT22;12012;51.998;7.614;2023-04-06T01:07:02;2.80;1.00
23671;DHT22;12012;51.998;7.614;2023-04-06T01:09:29;2.80;1.00
23671;DHT22;12012;51.998;7.614;2023-04-06T01:11:58;2.80;1.00
23671;DHT22;12012;51.998;7.614;2023-04-06T01:14:24;2.70;1.00
23671;DHT22;12012;51.998;7.614;2023-04-06T01:16:51;2.70;1.00
23671;DHT22;12012;51.998;7.614;2023-04-06T01:19:17;2.70;1.00
23671;DHT22;12012;51.998;7.614;2023-04-06T01:21:42;2.70;1.00
23671;DHT22;12012;51.998;7.614;2023-04-06T01:24:09;2.70;1.00
23671;DHT22;12012;51.998;7.614;2023-04-06T01:26:35;2.60;1.00
23671;DHT22;12012;51.998;7.614;2023-04-06T01:29:02;2.60;1.00
23671;DHT22;12012;51.998;7.614;2023-04-06T01:31:28;2.60;1.00
23671;DHT22;12012;51.998;7.614;2023-04-06T01:33:54;2.50;1.00
23671;DHT22;12012;51.998;7.614;2023-04-06T01:36:20;2.50;1.00
23671;DHT22;12012;51.998;7.614;2023-04-06T01:38:46;2.50;1.00
23671;DHT22;12012;51.998;7.614;2023-04-06T01:41:11;2.50;1.00
23671;DHT22;12012;51.998;7.614;2023-04-06T01:43:37;2.50;1.00
23671;DHT22;12012;51.998;7.614;2023-04-06T01:46:03;2.50;1.00
23671;DHT22;12012;51.998;7.614;2023-04-06T01:48:29;2.40;1.00
23671;DHT22;12012;51.998;7.614;2023-04-06T01:50:55;2.40;1.00
23671;DHT22;12012;51.998;7.614;2023-04-06T01:53:21;2.40;1.00
23671;DHT22;12012;51.998;7.614;2023-04-06T01:55:46;2.40;1.00
23671;DHT22;12012;51.998;7.614;2023-04-06T01:58:12;2.30;1.00
23671;DHT22;12012;51.998;7.614;2023-04-06T02:00:38;2.20;1.00
23671;DHT22;12012;51.998;7.614;2023-04-06T02:03:04;2.20;1.00
23671;DHT22;12012;51.998;7.614;2023-04-06T02:05:31;2.20;1.00
23671;DHT22;12012;51.998;7.614;2023-04-06T02:07:58;2.20;1.00
23671;DHT22;12012;51.998;7.614;2023-04-06T02:10:24;2.10;1.00
23671;DHT22;12012;51.998;7.614;2023-04-06T02:12:49;2.10;1.00
23671;DHT22;12012;51.998;7.614;2023-04-06T02:15:15;2.20;1.00
23671;DHT22;12012;51.998;7.614;2023-04-06T02:17:42;2.10;1.00
23671;DHT22;12012;51.998;7.614;2023-04-06T02:20:07;2.10;1.00
23671;DHT22;12012;51.998;7.614;2023-04-06T02:22:34;2.10;1.00
23671;DHT22;12012;51.998;7.614;2023-04-06T02:25:00;2.00;1.00
23671;DHT22;12012;51.998;7.614;2023-04-06T02:27:26;2.00;1.00
23671;DHT22;12012;51.998;7.614;2023-04-06T02:29:52;2.00;1.00
23671;DHT22;12012;51.998;7.614;2023-04-06T02:32:17;2.00;1.00
23671;DHT22;12012;51.998;7.614;2023-04-06T02:34:43;1.90;1.00
23671;DHT22;12012;51.998;7.614;2023-04-06T02:37:09;1.90;1.00
23671;DHT22;12012;51.998;7.614;2023-04-06T02:39:34;1.90;1.00
23671;DHT22;12012;51.998;7.614;2023-04-06T02:42:00;1.90;1.00
23671;DHT22;12012;51.998;7.614;2023-04-06T02:44:25;1.80;1.00
23671;DHT22;12012;51.998;7.614;2023-04-06T02:46:51;1.80;1.00
23671;DHT22;12012;51.998;7.614;2023-04-06T02:49:17;1.80;1.00
23671;DHT22;12012;51.998;7.614;2023-04-06T02:51:42;1.80;1.00
23671;DHT22;12012;51.998;7.614;2023-04-06T02:54:08;1.80;1.00
23671;DHT22;12012;51.998;7.614;2023-04-06T02:56:33;1.70;1.00
23671;DHT22;12012;51.998;7.614;2023-04-06T02:58:59;1.70;1.00
23671;DHT22;12012;51.998;7.614;2023-04-06T03:01:26;1.70;1.00
23671;DHT22;12012;51.998;7.614;2023-04-06T03:03:51;1.60;1.00
23671;DHT22;12012;51.998;7.614;2023-04-06T03:06:17;1.60;1.00
23671;DHT22;12012;51.998;7.614;2023-04-06T03:08:42;1.60;1.00
23671;DHT22;12012;51.998;7.614;2023-04-06T03:11:08;1.60;1.00
23671;DHT22;12012;51.998;7.614;2023-04-06T03:13:34;1.50;1.00
23671;DHT22;12012;51.998;7.614;2023-04-06T03:15:59;1.50;1.00
23671;DHT22;12012;51.998;7.614;2023-04-06T03:18:25;1.50;1.00
23671;DHT22;12012;51.998;7.614;2023-04-06T03:20:51;1.50;1.00
23671;DHT22;12012;51.998;7.614;2023-04-06T03:23:19;1.40;1.00
23671;DHT22;12012;51.998;7.614;2023-04-06T03:25:46;1.40;1.00
23671;DHT22;12012;51.998;7.614;2023-04-06T03:28:11;1.40;1.00
23671;DHT22;12012;51.998;7.614;2023-04-06T03:30:37;1.40;1.00
23671;DHT22;12012;51.998;7.614;2023-04-06T03:33:03;1.40;1.00
23671;DHT22;12012;51.998;7.614;2023-04-06T03:35:28;1.40;1.00
23671;DHT22;12012;51.998;7.614;2023-04-06T03:37:54;1.40;1.00
23671;DHT22;12012;51.998;7.614;2023-04-06T03:40:19;1.40;1.00
23671;DHT22;12012;51.998;7.614;2023-04-06T03:42:45;1.40;1.00
23671;DHT22;12012;51.998;7.614;2023-04-06T03:45:11;1.30;1.00
23671;DHT22;12012;51.998;7.614;2023-04-06T03:47:38;1.30;1.00
23671;DHT22;12012;51.998;7.614;2023-04-06T03:50:04;1.30;1.00
23671;DHT22;12012;51.998;7.614;2023-04-06T03:52:30;1.30;1.00
23671;DHT22;12012;51.998;7.614;2023-04-06T03:54:55;1.30;1.00
23671;DHT22;12012;51.998;7.614;2023-04-06T03:57:21;1.30;1.00
23671;DHT22;12012;51.998;7.614;2023-04-06T03:59:47;1.20;1.00
23671;DHT22;12012;51.998;7.614;2023-04-06T04:02:12;1.20;1.00
23671;DHT22;12012;51.998;7.614;2023-04-06T04:04:38;1.20;1.00
23671;DHT22;12012;51.998;7.614;2023-04-06T04:07:03;1.20;1.00
23671;DHT22;12012;51.998;7.614;2023-04-06T04:09:29;1.20;1.00
23671;DHT22;12012;51.998;7.614;2023-04-06T04:11:54;1.20;1.00
23671;DHT22;12012;51.998;7.614;2023-04-06T04:14:20;1.20;1.00
23671;DHT22;12012;51.998;7.614;2023-04-06T04:16:46;1.10;1.00
23671;DHT22;12012;51.998;7.614;2023-04-06T04:19:12;1.10;1.00
23671;DHT22;12012;51.998;7.614;2023-04-06T04:21:46;1.20;1.00
23671;DHT22;12012;51.998;7.614;2023-04-06T04:24:12;1.10;1.00
23671;DHT22;12012;51.998;7.614;2023-04-06T04:26:38;1.10;1.00
23671;DHT22;12012;51.998;7.614;2023-04-06T04:29:04;1.10;1.00
23671;DHT22;12012;51.998;7.614;2023-04-06T04:31:30;1.10;1.00
23671;DHT22;12012;51.998;7.614;2023-04-06T04:33:56;1.10;1.00
23671;DHT22;12012;51.998;7.614;2023-04-06T04:36:21;1.00;1.00
23671;DHT22;12012;51.998;7.614;2023-04-06T04:38:48;1.00;1.00
23671;DHT22;12012;51.998;7.614;2023-04-06T04:41:14;1.10;1.00
23671;DHT22;12012;51.998;7.614;2023-04-06T04:43:39;1.10;1.00
23671;DHT22;12012;51.998;7.614;2023-04-06T04:46:05;1.00;1.00
23671;DHT22;12012;51.998;7.614;2023-04-06T04:48:30;1.00;1.00
23671;DHT22;12012;51.998;7.614;2023-04-06T04:50:56;1.00;1.00
23671;DHT22;12012;51.998;7.614;2023-04-06T04:53:22;1.00;1.00
23671;DHT22;12012;51.998;7.614;2023-04-06T04:55:47;1.00;1.00
23671;DHT22;12012;51.998;7.614;2023-04-06T04:58:13;1.00;1.00
23671;DHT22;12012;51.998;7.614;2023-04-06T05:00:46;1.00;1.00
23671;DHT22;12012;51.998;7.614;2023-04-06T05:03:22;1.00;1.00
23671;DHT22;12012;51.998;7.614;2023-04-06T05:05:48;1.00;1.00
23671;DHT22;12012;51.998;7.614;2023-04-06T05:08:15;1.00;1.00
23671;DHT22;12012;51.998;7.614;2023-04-06T05:10:41;1.00;1.00
23671;DHT22;12012;51.998;7.614;2023-04-06T05:13:06;1.00;1.00
23671;DHT22;12012;51.998;7.614;2023-04-06T05:15:32;1.00;1.00
23671;DHT22;12012;51.998;7.614;2023-04-06T05:18:00;1.00;1.00
23671;DHT22;12012;51.998;7.614;2023-04-06T05:20:26;1.10;1.00
23671;DHT22;12012;51.998;7.614;2023-04-06T05:22:53;1.10;1.00
23671;DHT22;12012;51.998;7.614;2023-04-06T05:25:19;1.10;1.00
23671;DHT22;12012;51.998;7.614;2023-04-06T05:27:45;1.20;1.00
23671;DHT22;12012;51.998;7.614;2023-04-06T05:30:11;1.30;1.00
23671;DHT22;12012;51.998;7.614;2023-04-06T05:32:36;1.20;1.00
23671;DHT22;12012;51.998;7.614;2023-04-06T05:35:02;1.30;1.00
23671;DHT22;12012;51.998;7.614;2023-04-06T05:37:28;1.20;1.00
23671;DHT22;12012;51.998;7.614;2023-04-06T05:39:53;1.20;1.00
23671;DHT22;12012;51.998;7.614;2023-04-06T05:42:19;1.20;1.00
23671;DHT22;12012;51.998;7.614;2023-04-06T05:44:45;1.20;1.00
23671;DHT22;12012;51.998;7.614;2023-04-06T05:47:10;1.20;1.00
23671;DHT22;12012;51.998;7.614;2023-04-06T05:49:36;1.30;1.00
23671;DHT22;12012;51.998;7.614;2023-04-06T05:52:02;1.30;1.00
23671;DHT22;12012;51.998;7.614;2023-04-06T05:54:27;1.40;1.00
23671;DHT22;12012;51.998;7.614;2023-04-06T05:56:53;1.40;5.20
23671;DHT22;12012;51.998;7.614;2023-04-06T05:59:18;1.40;8.80
23671;DHT22;12012;51.998;7.614;2023-04-06T06:01:44;1.50;10.80
23671;DHT22;12012;51.998;7.614;2023-04-06T06:04:10;1.60;14.80
23671;DHT22;12012;51.998;7.614;2023-04-06T06:06:35;1.60;18.60
23671;DHT22;12012;51.998;7.614;2023-04-06T06:09:02;1.70;19.70
23671;DHT22;12012;51.998;7.614;2023-04-06T06:11:29;1.80;24.30
23671;DHT22;12012;51.998;7.614;2023-04-06T06:13:55;1.80;26.80
23671;DHT22;12012;51.998;7.614;2023-04-06T06:16:21;1.90;29.20
23671;DHT22;12012;51.998;7.614;2023-04-06T06:18:47;2.00;30.40
23671;DHT22;12012;51.998;7.614;2023-04-06T06:21:13;2.10;30.90
23671;DHT22;12012;51.998;7.614;2023-04-06T06:23:39;2.20;31.80
23671;DHT22;12012;51.998;7.614;2023-04-06T06:26:04;2.40;32.70
23671;DHT22;12012;51.998;7.614;2023-04-06T06:28:30;2.50;33.10
23671;DHT22;12012;51.998;7.614;2023-04-06T06:30:56;2.60;33.70
23671;DHT22;12012;51.998;7.614;2023-04-06T06:33:22;2.70;35.40
23671;DHT22;12012;51.998;7.614;2023-04-06T06:35:48;2.80;36.40
23671;DHT22;12012;51.998;7.614;2023-04-06T06:38:13;2.90;38.70
23671;DHT22;12012;51.998;7.614;2023-04-06T06:40:40;3.00;43.00
23671;DHT22;12012;51.998;7.614;2023-04-06T06:43:06;3.20;45.30
23671;DHT22;12012;51.998;7.614;2023-04-06T06:45:32;3.20;49.40
23671;DHT22;12012;51.998;7.614;2023-04-06T06:47:58;3.30;57.30
23671;DHT22;12012;51.998;7.614;2023-04-06T06:50:23;3.50;54.80
23671;DHT22;12012;51.998;7.614;2023-04-06T06:52:49;3.60;53.50
23671;DHT22;12012;51.998;7.614;2023-04-06T06:55:15;3.70;52.70
23671;DHT22;12012;51.998;7.614;2023-04-06T06:57:41;3.90;53.70
23671;DHT22;12012;51.998;7.614;2023-04-06T07:00:08;4.00;53.00
23671;DHT22;12012;51.998;7.614;2023-04-06T07:02:35;4.20;53.80
23671;DHT22;12012;51.998;7.614;2023-04-06T07:05:03;4.40;52.80
23671;DHT22;12012;51.998;7.614;2023-04-06T07:07:30;4.60;66.80
23671;DHT22;12012;51.998;7.614;2023-04-06T07:09:55;4.70;48.40
23671;DHT22;12012;51.998;7.614;2023-04-06T07:12:21;4.90;46.60
23671;DHT22;12012;51.998;7.614;2023-04-06T07:14:46;5.10;43.40
23671;DHT22;12012;51.998;7.614;2023-04-06T07:17:12;5.30;38.10
23671;DHT22;12012;51.998;7.614;2023-04-06T07:19:37;5.50;33.80
23671;DHT22;12012;51.998;7.614;2023-04-06T07:22:03;5.70;30.10
23671;DHT22;12012;51.998;7.614;2023-04-06T07:24:29;5.90;26.10
23671;DHT22;12012;51.998;7.614;2023-04-06T07:26:55;6.00;21.30
23671;DHT22;12012;51.998;7.614;2023-04-06T07:29:22;6.20;18.80
23671;DHT22;12012;51.998;7.614;2023-04-06T07:31:48;6.50;15.50
23671;DHT22;12012;51.998;7.614;2023-04-06T07:34:14;6.70;12.40
23671;DHT22;12012;51.998;7.614;2023-04-06T07:36:40;7.00;7.80
23671;DHT22;12012;51.998;7.614;2023-04-06T07:39:06;7.20;4.90
23671;DHT22;12012;51.998;7.614;2023-04-06T07:41:32;7.60;3.10
23671;DHT22;12012;51.998;7.614;2023-04-06T07:43:57;7.90;1.00
23671;DHT22;12012;51.998;7.614;2023-04-06T07:46:23;8.30;1.00
23671;DHT22;12012;51.998;7.614;2023-04-06T07:48:48;8.60;1.00
23671;DHT22;12012;51.998;7.614;2023-04-06T07:51:15;8.90;1.00
23671;DHT22;12012;51.998;7.614;2023-04-06T07:53:45;9.10;1.00
23671;DHT22;12012;51.998;7.614;2023-04-06T07:56:11;9.30;1.00
23671;DHT22;12012;51.998;7.614;2023-04-06T07:58:38;9.50;1.00
23671;DHT22;12012;51.998;7.614;2023-04-06T08:01:03;9.70;1.00
23671;DHT22;12012;51.998;7.614;2023-04-06T08:03:29;9.90;1.00
23671;DHT22;12012;51.998;7.614;2023-04-06T08:05:55;10.10;1.00
23671;DHT22;12012;51.998;7.614;2023-04-06T08:08:21;10.40;1.00
23671;DHT22;12012;51.998;7.614;2023-04-06T08:10:48;10.60;1.00
23671;DHT22;12012;51.998;7.614;2023-04-06T08:13:14;10.80;1.00
23671;DHT22;12012;51.998;7.614;2023-04-06T08:15:40;11.00;1.00
23671;DHT22;12012;51.998;7.614;2023-04-06T08:18:06;11.20;1.00
23671;DHT22;12012;51.998;7.614;2023-04-06T08:20:32;11.30;1.00
23671;DHT22;12012;51.998;7.614;2023-04-06T08:22:57;11.50;1.00
23671;DHT22;12012;51.998;7.614;2023-04-06T08:25:23;11.70;1.00
23671;DHT22;12012;51.998;7.614;2023-04-06T08:27:48;11.90;1.00
23671;DHT22;12012;51.998;7.614;2023-04-06T08:30:14;12.00;1.00
23671;DHT22;12012;51.998;7.614;2023-04-06T08:32:41;12.00;1.00
23671;DHT22;12012;51.998;7.614;2023-04-06T08:35:07;12.20;1.00
23671;DHT22;12012;51.998;7.614;2023-04-06T08:37:33;12.20;1.00
23671;DHT22;12012;51.998;7.614;2023-04-06T08:39:59;12.30;1.00
23671;DHT22;12012;51.998;7.614;2023-04-06T08:42:25;12.40;1.00
23671;DHT22;12012;51.998;7.614;2023-04-06T08:44:51;12.40;1.00
23671;DHT22;12012;51.998;7.614;2023-04-06T08:47:17;12.60;1.00
23671;DHT22;12012;51.998;7.614;2023-04-06T08:49:44;12.70;1.00
23671;DHT22;12012;51.998;7.614;2023-04-06T08:52:11;12.90;1.00
23671;DHT22;12012;51.998;7.614;2023-04-06T08:54:38;13.20;1.00
23671;DHT22;12012;51.998;7.614;2023-04-06T08:57:04;13.40;1.00
23671;DHT22;12012;51.998;7.614;2023-04-06T08:59:31;13.60;1.00
23671;DHT22;12012;51.998;7.614;2023-04-06T09:01:57;13.80;1.00
23671;DHT22;12012;51.998;7.614;2023-04-06T09:04:24;13.90;1.00
23671;DHT22;12012;51.998;7.614;2023-04-06T09:06:51;14.20;1.00
23671;DHT22;12012;51.998;7.614;2023-04-06T09:09:17;14.50;1.00
23671;DHT22;12012;51.998;7.614;2023-04-06T09:11:45;14.70;1.00
23671;DHT22;12012;51.998;7.614;2023-04-06T09:14:11;14.90;1.00
23671;DHT22;12012;51.998;7.614;2023-04-06T09:16:41;15.00;1.00
23671;DHT22;12012;51.998;7.614;2023-04-06T09:19:07;15.10;1.00
23671;DHT22;12012;51.998;7.614;2023-04-06T09:21:33;15.20;1.00
23671;DHT22;12012;51.998;7.614;2023-04-06T09:24:00;15.40;1.00
23671;DHT22;12012;51.998;7.614;2023-04-06T09:26:26;15.60;1.00
23671;DHT22;12012;51.998;7.614;2023-04-06T09:28:58;15.90;1.00
23671;DHT22;12012;51.998;7.614;2023-04-06T09:31:27;16.00;1.00
23671;DHT22;12012;51.998;7.614;2023-04-06T09:33:54;16.10;1.00
23671;DHT22;12012;51.998;7.614;2023-04-06T09:36:20;16.20;1.00
23671;DHT22;12012;51.998;7.614;2023-04-06T09:38:56;16.40;1.00
23671;DHT22;12012;51.998;7.614;2023-04-06T09:41:30;16.70;1.00
23671;DHT22;12012;51.998;7.614;2023-04-06T09:46:33;16.90;1.00
23671;DHT22;12012;51.998;7.614;2023-04-06T09:49:01;17.10;1.00
23671;DHT22;12012;51.998;7.614;2023-04-06T09:51:30;17.30;1.00
23671;DHT22;12012;51.998;7.614;2023-04-06T09:53:57;17.30;1.00
23671;DHT22;12012;51.998;7.614;2023-04-06T09:56:39;17.30;1.00
23671;DHT22;12012;51.998;7.614;2023-04-06T09:59:10;17.30;1.00
23671;DHT22;12012;51.998;7.614;2023-04-06T10:01:37;17.50;1.00
23671;DHT22;12012;51.998;7.614;2023-04-06T10:04:13;17.60;1.00
23671;DHT22;12012;51.998;7.614;2023-04-06T10:06:43;17.60;1.00
23671;DHT22;12012;51.998;7.614;2023-04-06T10:09:10;17.60;1.00
23671;DHT22;12012;51.998;7.614;2023-04-06T10:11:36;17.60;1.00
23671;DHT22;12012;51.998;7.614;2023-04-06T10:14:02;17.70;1.00
23671;DHT22;12012;51.998;7.614;2023-04-06T10:16:28;17.90;1.00
23671;DHT22;12012;51.998;7.614;2023-04-06T10:19:10;18.10;1.00
23671;DHT22;12012;51.998;7.614;2023-04-06T10:21:39;18.10;1.00
23671;DHT22;12012;51.998;7.614;2023-04-06T10:24:09;18.10;1.00
23671;DHT22;12012;51.998;7.614;2023-04-06T10:26:37;18.20;1.00
23671;DHT22;12012;51.998;7.614;2023-04-06T10:29:04;18.40;1.00
23671;DHT22;12012;51.998;7.614;2023-04-06T10:31:30;18.60;1.00
23671;DHT22;12012;51.998;7.614;2023-04-06T10:34:02;18.70;1.00
23671;DHT22;12012;51.998;7.614;2023-04-06T10:36:34;18.90;1.00
23671;DHT22;12012;51.998;7.614;2023-04-06T10:39:04;19.20;1.00
23671;DHT22;12012;51.998;7.614;2023-04-06T10:41:36;19.60;1.00
23671;DHT22;12012;51.998;7.614;2023-04-06T10:44:02;19.90;1.00
23671;DHT22;12012;51.998;7.614;2023-04-06T10:46:34;20.30;1.00
23671;DHT22;12012;51.998;7.614;2023-04-06T10:49:12;20.40;1.00
23671;DHT22;12012;51.998;7.614;2023-04-06T10:51:39;20.30;1.00
23671;DHT22;12012;51.998;7.614;2023-04-06T10:54:06;20.10;1.00
23671;DHT22;12012;51.998;7.614;2023-04-06T10:56:33;20.00;1.00
23671;DHT22;12012;51.998;7.614;2023-04-06T10:59:02;19.90;1.00
23671;DHT22;12012;51.998;7.614;2023-04-06T11:01:27;19.80;1.00
23671;DHT22;12012;51.998;7.614;2023-04-06T11:03:55;19.70;1.00
23671;DHT22;12012;51.998;7.614;2023-04-06T11:06:25;19.60;1.00
23671;DHT22;12012;51.998;7.614;2023-04-06T11:08:53;19.50;1.00
23671;DHT22;12012;51.998;7.614;2023-04-06T11:11:20;19.50;1.00
23671;DHT22;12012;51.998;7.614;2023-04-06T11:16:28;19.80;1.00
23671;DHT22;12012;51.998;7.614;2023-04-06T11:18:59;19.90;1.00
23671;DHT22;12012;51.998;7.614;2023-04-06T11:21:36;20.10;1.00
23671;DHT22;12012;51.998;7.614;2023-04-06T11:24:11;20.40;1.00
23671;DHT22;12012;51.998;7.614;2023-04-06T11:29:11;20.60;1.00
23671;DHT22;12012;51.998;7.614;2023-04-06T11:31:50;20.40;1.00
23671;DHT22;12012;51.998;7.614;2023-04-06T11:34:24;20.20;1.00
23671;DHT22;12012;51.998;7.614;2023-04-06T11:36:55;19.90;1.00
23671;DHT22;12012;51.998;7.614;2023-04-06T11:39:23;19.90;1.00
23671;DHT22;12012;51.998;7.614;2023-04-06T11:41:53;20.20;1.00
23671;DHT22;12012;51.998;7.614;2023-04-06T11:44:36;20.40;1.00
23671;DHT22;12012;51.998;7.614;2023-04-06T11:47:05;20.70;1.00
23671;DHT22;12012;51.998;7.614;2023-04-06T11:49:32;21.10;1.00
23671;DHT22;12012;51.998;7.614;2023-04-06T11:52:01;21.40;1.00
23671;DHT22;12012;51.998;7.614;2023-04-06T11:54:37;21.40;1.00
23671;DHT22;12012;51.998;7.614;2023-04-06T11:57:07;21.20;1.00
23671;DHT22;12012;51.998;7.614;2023-04-06T11:59:33;20.90;1.00
23671;DHT22;12012;51.998;7.614;2023-04-06T12:01:59;20.60;1.00
23671;DHT22;12012;51.998;7.614;2023-04-06T12:04:25;20.40;1.00
23671;DHT22;12012;51.998;7.614;2023-04-06T12:06:50;20.30;1.00
23671;DHT22;12012;51.998;7.614;2023-04-06T12:09:18;20.30;1.00
23671;DHT22;12012;51.998;7.614;2023-04-06T12:11:44;20.30;1.00
23671;DHT22;12012;51.998;7.614;2023-04-06T12:14:10;20.30;1.00
23671;DHT22;12012;51.998;7.614;2023-04-06T12:16:36;20.40;1.00
23671;DHT22;12012;51.998;7.614;2023-04-06T12:19:02;20.40;1.00
23671;DHT22;12012;51.998;7.614;2023-04-06T12:21:28;20.60;1.00
23671;DHT22;12012;51.998;7.614;2023-04-06T12:23:54;20.80;1.00
23671;DHT22;12012;51.998;7.614;2023-04-06T12:26:21;21.10;1.00
23671;DHT22;12012;51.998;7.614;2023-04-06T12:28:47;21.40;1.00
23671;DHT22;12012;51.998;7.614;2023-04-06T12:31:16;21.40;1.00
23671;DHT22;12012;51.998;7.614;2023-04-06T12:33:42;21.10;1.00
23671;DHT22;12012;51.998;7.614;2023-04-06T12:36:12;21.00;1.00
23671;DHT22;12012;51.998;7.614;2023-04-06T12:38:38;21.50;1.00
23671;DHT22;12012;51.998;7.614;2023-04-06T12:41:05;22.50;1.00
23671;DHT22;12012;51.998;7.614;2023-04-06T12:43:31;23.40;1.00
23671;DHT22;12012;51.998;7.614;2023-04-06T12:45:56;23.80;1.00
23671;DHT22;12012;51.998;7.614;2023-04-06T12:48:22;23.90;1.00
23671;DHT22;12012;51.998;7.614;2023-04-06T12:50:55;23.70;1.00
23671;DHT22;12012;51.998;7.614;2023-04-06T12:53:21;23.10;1.00
23671;DHT22;12012;51.998;7.614;2023-04-06T12:55:47;22.60;1.00
23671;DHT22;12012;51.998;7.614;2023-04-06T12:58:12;22.30;1.00
23671;DHT22;12012;51.998;7.614;2023-04-06T13:00:38;22.00;1.00
23671;DHT22;12012;51.998;7.614;2023-04-06T13:03:03;21.60;1.00
23671;DHT22;12012;51.998;7.614;2023-04-06T13:05:29;21.30;1.00
23671;DHT22;12012;51.998;7.614;2023-04-06T13:07:55;20.90;1.00
23671;DHT22;12012;51.998;7.614;2023-04-06T13:10:20;20.70;1.00
23671;DHT22;12012;51.998;7.614;2023-04-06T13:12:46;20.40;1.00
23671;DHT22;12012;51.998;7.614;2023-04-06T13:15:11;20.10;1.00
23671;DHT22;12012;51.998;7.614;2023-04-06T13:17:37;20.10;1.00
23671;DHT22;12012;51.998;7.614;2023-04-06T13:20:03;20.10;1.00
23671;DHT22;12012;51.998;7.614;2023-04-06T13:22:29;20.00;1.00
23671;DHT22;12012;51.998;7.614;2023-04-06T13:24:55;19.90;1.00
23671;DHT22;12012;51.998;7.614;2023-04-06T13:27:20;19.70;1.00
23671;DHT22;12012;51.998;7.614;2023-04-06T13:29:46;19.60;1.00
23671;DHT22;12012;51.998;7.614;2023-04-06T13:32:11;19.40;1.00
23671;DHT22;12012;51.998;7.614;2023-04-06T13:34:37;19.00;1.00
23671;DHT22;12012;51.998;7.614;2023-04-06T13:37:02;18.50;1.00
23671;DHT22;12012;51.998;7.614;2023-04-06T13:39:28;18.20;1.00
23671;DHT22;12012;51.998;7.614;2023-04-06T13:41:54;18.00;1.00
23671;DHT22;12012;51.998;7.614;2023-04-06T13:44:22;17.70;1.00
23671;DHT22;12012;51.998;7.614;2023-04-06T13:46:47;17.40;1.00
23671;DHT22;12012;51.998;7.614;2023-04-06T13:49:13;17.30;1.00
23671;DHT22;12012;51.998;7.614;2023-04-06T13:51:39;17.20;1.00
23671;DHT22;12012;51.998;7.614;2023-04-06T13:54:04;16.90;1.00
23671;DHT22;12012;51.998;7.614;2023-04-06T13:56:30;16.70;1.00
23671;DHT22;12012;51.998;7.614;2023-04-06T13:58:56;16.60;1.00
23671;DHT22;12012;51.998;7.614;2023-04-06T14:01:22;16.50;1.00
23671;DHT22;12012;51.998;7.614;2023-04-06T14:03:48;16.40;1.00
23671;DHT22;12012;51.998;7.614;2023-04-06T14:06:14;16.30;1.00
23671;DHT22;12012;51.998;7.614;2023-04-06T14:08:40;16.20;1.00
23671;DHT22;12012;51.998;7.614;2023-04-06T14:11:10;16.20;1.00
23671;DHT22;12012;51.998;7.614;2023-04-06T14:13:37;16.20;1.00
23671;DHT22;12012;51.998;7.614;2023-04-06T14:16:02;16.20;1.00
23671;DHT22;12012;51.998;7.614;2023-04-06T14:18:28;16.20;1.00
23671;DHT22;12012;51.998;7.614;2023-04-06T14:20:56;16.30;1.00
23671;DHT22;12012;51.998;7.614;2023-04-06T14:23:23;16.30;1.00
23671;DHT22;12012;51.998;7.614;2023-04-06T14:25:51;16.20;1.00
23671;DHT22;12012;51.998;7.614;2023-04-06T14:28:17;16.10;1.00
23671;DHT22;12012;51.998;7.614;2023-04-06T14:30:43;16.00;1.00
23671;DHT22;12012;51.998;7.614;2023-04-06T14:33:09;15.90;1.00
23671;DHT22;12012;51.998;7.614;2023-04-06T14:35:38;15.80;1.00
23671;DHT22;12012;51.998;7.614;2023-04-06T14:38:04;15.80;1.00
23671;DHT22;12012;51.998;7.614;2023-04-06T14:40:33;15.70;1.00
23671;DHT22;12012;51.998;7.614;2023-04-06T14:42:59;15.60;1.00
23671;DHT22;12012;51.998;7.614;2023-04-06T14:45:25;15.50;1.00
23671;DHT22;12012;51.998;7.614;2023-04-06T14:47:51;15.40;1.00
23671;DHT22;12012;51.998;7.614;2023-04-06T14:50:17;15.40;1.00
23671;DHT22;12012;51.998;7.614;2023-04-06T14:52:42;15.30;1.00
23671;DHT22;12012;51.998;7.614;2023-04-06T14:55:08;15.20;1.00
23671;DHT22;12012;51.998;7.614;2023-04-06T14:57:33;15.10;1.00
23671;DHT22;12012;51.998;7.614;2023-04-06T14:59:59;15.10;1.00
23671;DHT22;12012;51.998;7.614;2023-04-06T15:02:25;15.10;1.00
23671;DHT22;12012;51.998;7.614;2023-04-06T15:04:53;15.10;1.00
23671;DHT22;12012;51.998;7.614;2023-04-06T15:07:22;15.00;1.00
23671;DHT22;12012;51.998;7.614;2023-04-06T15:09:47;14.90;1.00
23671;DHT22;12012;51.998;7.614;2023-04-06T15:12:13;14.90;1.00
23671;DHT22;12012;51.998;7.614;2023-04-06T15:14:39;14.80;1.00
23671;DHT22;12012;51.998;7.614;2023-04-06T15:17:04;14.60;1.00
23671;DHT22;12012;51.998;7.614;2023-04-06T15:19:30;14.60;1.00
23671;DHT22;12012;51.998;7.614;2023-04-06T15:21:56;14.50;1.00
23671;DHT22;12012;51.998;7.614;2023-04-06T15:24:21;14.40;1.00
23671;DHT22;12012;51.998;7.614;2023-04-06T15:26:47;14.40;1.00
23671;DHT22;12012;51.998;7.614;2023-04-06T15:29:12;14.40;1.00
23671;DHT22;12012;51.998;7.614;2023-04-06T15:31:38;14.40;1.00
23671;DHT22;12012;51.998;7.614;2023-04-06T15:34:05;14.40;1.00
23671;DHT22;12012;51.998;7.614;2023-04-06T15:36:33;14.30;1.00
23671;DHT22;12012;51.998;7.614;2023-04-06T15:39:00;14.20;1.00
23671;DHT22;12012;51.998;7.614;2023-04-06T15:41:26;14.10;1.00
23671;DHT22;12012;51.998;7.614;2023-04-06T15:43:53;14.10;1.00
23671;DHT22;12012;51.998;7.614;2023-04-06T15:46:19;14.10;1.00
23671;DHT22;12012;51.998;7.614;2023-04-06T15:48:45;14.00;1.00
23671;DHT22;12012;51.998;7.614;2023-04-06T15:51:11;14.00;1.00
23671;DHT22;12012;51.998;7.614;2023-04-06T15:53:37;14.00;1.00
23671;DHT22;12012;51.998;7.614;2023-04-06T15:56:04;13.90;1.00